Time;durP1;ratioP1;P1;durP2;ratioP2;P2;SDS_P1;SDS_P2;PMS_P1;PMS_P2;Temp;Humidity;BMP_temperature;BMP_pressure;BME280_temperature;BME280_humidity;BME280_pressure;Samples;Min_cycle;Max_cycle;Signal;HPM_P1;HPM_P2
2021/09/08 00:02:17;;;;;;;9.40;3.87;;;;;;;16.00;71.11;95692.69;5014055;28;20449;-82
2021/09/08 00:04:45;;;;;;;6.20;4.60;;;;;;;16.08;71.70;95692.78;5032531;28;20614;-82
2021/09/08 00:07:12;;;;;;;4.13;3.70;;;;;;;15.93;70.95;95698.72;5032344;28;20950;-82
2021/09/08 00:09:39;;;;;;;8.27;3.53;;;;;;;15.89;70.96;95697.28;5032444;28;20453;-82
2021/09/08 00:12:07;;;;;;;6.70;3.43;;;;;;;15.94;70.57;95692.44;5033127;28;20471;-82
2021/09/08 00:14:35;;;;;;;4.00;3.67;;;;;;;15.92;70.84;95692.56;5033523;28;20866;-82
2021/09/08 00:17:02;;;;;;;4.87;4.00;;;;;;;15.80;71.58;95697.19;5033971;28;20541;-82
2021/09/08 00:19:28;;;;;;;3.60;3.40;;;;;;;15.56;72.40;95691.47;5033322;28;20448;-82
2021/09/08 00:21:57;;;;;;;6.63;4.10;;;;;;;15.59;71.88;95696.50;5033070;28;20957;-83
2021/09/08 00:24:24;;;;;;;7.03;4.00;;;;;;;15.45;72.53;95697.75;5033075;28;20533;-81
2021/09/08 00:26:51;;;;;;;4.20;3.83;;;;;;;15.15;73.79;95700.53;5033840;28;20435;-81
2021/09/08 00:29:18;;;;;;;7.60;3.67;;;;;;;15.17;74.32;95701.22;5033306;28;20839;-81
2021/09/08 00:31:45;;;;;;;7.27;4.33;;;;;;;15.16;74.37;95689.81;5032949;28;20930;-82
2021/09/08 00:34:12;;;;;;;5.87;4.90;;;;;;;15.00;74.98;95693.97;5014837;28;20485;-82
2021/09/08 00:36:40;;;;;;;4.03;3.63;;;;;;;14.93;75.46;95703.41;5033033;28;20955;-82
2021/09/08 00:42:31;;;;;;;5.40;3.80;;;;;;;14.78;76.11;95701.19;5033054;28;20436;-81
2021/09/08 00:44:58;;;;;;;6.17;3.87;;;;;;;14.78;76.74;95695.91;5032739;28;20887;-82
2021/09/08 00:47:25;;;;;;;5.10;4.67;;;;;;;14.68;77.13;95700.31;5014761;28;20530;-82
2021/09/08 00:49:52;;;;;;;6.00;4.07;;;;;;;14.61;77.68;95691.25;5033130;28;20437;-82
2021/09/08 00:52:19;;;;;;;9.93;4.90;;;;;;;14.88;76.72;95680.06;5033109;28;20443;-82
2021/09/08 00:54:48;;;;;;;6.00;4.40;;;;;;;15.09;76.32;95682.59;5033039;28;20480;-82
2021/09/08 00:57:16;;;;;;;7.63;4.97;;;;;;;15.09;75.74;95685.22;5032771;28;20938;-82
2021/09/08 00:59:45;;;;;;;5.27;4.80;;;;;;;15.21;75.54;95688.56;4998197;28;20428;-82
2021/09/08 01:02:13;;;;;;;7.63;4.60;;;;;;;15.23;75.18;95682.16;5032926;28;20551;-82
2021/09/08 01:04:40;;;;;;;5.47;4.97;;;;;;;15.06;75.76;95690.78;5032328;28;20530;-82
2021/09/08 01:07:08;;;;;;;4.67;4.13;;;;;;;15.14;75.38;95686.47;5031729;28;20936;-82
2021/09/08 01:09:35;;;;;;;5.07;4.67;;;;;;;15.18;75.39;95684.38;5031832;28;20518;-82
2021/09/08 01:12:02;;;;;;;5.53;4.60;;;;;;;15.36;74.79;95680.09;5033702;28;20522;-82
2021/09/08 01:14:29;;;;;;;5.97;5.13;;;;;;;15.44;74.39;95682.84;5035711;28;20571;-82
2021/09/08 01:16:59;;;;;;;8.60;4.70;;;;;;;15.53;74.05;95683.81;5035400;28;20933;-82
2021/09/08 01:19:26;;;;;;;5.47;4.97;;;;;;;15.38;74.82;95685.25;5035788;28;20873;-82
2021/09/08 01:21:53;;;;;;;7.07;5.53;;;;;;;14.98;76.61;95675.59;5036117;28;20533;-82
2021/09/08 01:24:23;;;;;;;9.23;5.80;;;;;;;15.06;76.55;95675.78;5036879;28;20455;-82
2021/09/08 01:26:52;;;;;;;7.70;6.67;;;;;;;15.06;77.01;95674.94;5036108;28;20931;-82
2021/09/08 01:29:20;;;;;;;6.43;5.77;;;;;;;15.11;76.82;95678.84;5036208;28;20887;-82
2021/09/08 01:31:53;;;;;;;9.00;5.97;;;;;;;15.17;76.97;95672.16;5036347;28;20438;-82
2021/09/08 01:34:20;;;;;;;6.53;5.80;;;;;;;15.30;76.81;95680.63;5036687;28;20843;-82
2021/09/08 01:36:46;;;;;;;8.20;5.00;;;;;;;15.37;75.91;95673.81;5036236;28;20430;-82
2021/09/08 01:39:16;;;;;;;7.40;5.43;;;;;;;15.45;75.41;95673.13;5035931;28;21026;-82
2021/09/08 01:41:45;;;;;;;6.83;4.67;;;;;;;15.48;75.44;95678.13;5035929;28;20437;-82
2021/09/08 01:44:12;;;;;;;8.00;4.77;;;;;;;15.54;74.70;95671.44;5017885;28;20451;-82
2021/09/08 01:46:39;;;;;;;7.33;5.60;;;;;;;15.56;74.59;95667.66;5036142;28;20892;-82
2021/09/08 01:49:06;;;;;;;7.10;5.07;;;;;;;15.63;74.54;95671.47;5034786;28;20984;-82
2021/09/08 01:51:33;;;;;;;7.67;5.33;;;;;;;15.56;74.96;95680.88;5034762;28;20531;-82
2021/09/08 01:54:00;;;;;;;6.97;6.13;;;;;;;15.27;75.79;95672.97;5034532;28;20482;-82
2021/09/08 01:56:27;;;;;;;7.63;5.60;;;;;;;15.36;75.37;95669.50;5016038;28;20526;-82
2021/09/08 01:58:55;;;;;;;5.80;5.30;;;;;;;15.31;75.70;95671.72;5034787;28;20525;-82
2021/09/08 02:01:25;;;;;;;6.93;6.03;;;;;;;15.41;75.48;95666.44;5016110;28;20963;-82
2021/09/08 02:03:52;;;;;;;6.43;5.83;;;;;;;15.49;76.04;95659.47;5034608;28;20449;-82
2021/09/08 02:06:23;;;;;;;9.23;6.30;;;;;;;15.38;76.34;95667.56;5034457;28;20447;-82
2021/09/08 02:08:50;;;;;;;6.30;5.80;;;;;;;15.41;76.32;95661.97;5034424;28;20445;-82
2021/09/08 02:11:17;;;;;;;7.00;6.20;;;;;;;15.49;76.26;95662.09;5017301;28;20445;-82
2021/09/08 02:13:45;;;;;;;8.43;7.40;;;;;;;15.49;76.08;95662.09;5035291;28;20474;-82
2021/09/08 02:16:15;;;;;;;7.37;6.67;;;;;;;15.47;76.29;95657.94;5035187;28;20457;-82
2021/09/08 02:18:42;;;;;;;6.67;6.17;;;;;;;15.50;76.29;95658.47;5035884;28;20434;-82
2021/09/08 02:21:10;;;;;;;7.10;6.37;;;;;;;15.38;76.45;95656.97;5035106;28;20901;-82
2021/09/08 02:23:37;;;;;;;7.80;7.00;;;;;;;15.41;76.75;95653.22;5034570;28;20454;-82
2021/09/08 02:26:04;;;;;;;6.47;5.87;;;;;;;15.30;76.69;95648.06;5016954;28;20456;-82
2021/09/08 02:28:31;;;;;;;6.10;5.70;;;;;;;15.32;76.32;95649.59;5035222;28;20797;-82
2021/09/08 02:30:57;;;;;;;6.40;5.80;;;;;;;15.35;76.54;95651.13;5034880;28;20936;-82
2021/09/08 02:33:26;;;;;;;7.80;6.30;;;;;;;15.22;77.41;95650.56;5034811;28;20431;-82
2021/09/08 02:35:53;;;;;;;9.23;6.40;;;;;;;15.32;76.95;95649.59;5034689;28;20460;-82
2021/09/08 02:38:20;;;;;;;9.27;7.03;;;;;;;15.39;77.11;95648.06;5034770;28;20469;-82
2021/09/08 02:40:47;;;;;;;7.80;5.93;;;;;;;15.35;77.23;95648.50;5016701;28;20440;-82
2021/09/08 02:43:15;;;;;;;7.80;5.70;;;;;;;15.34;77.03;95650.31;5034904;28;20451;-81
2021/09/08 02:45:42;;;;;;;7.57;5.87;;;;;;;15.23;77.30;95644.31;5034543;28;20479;-82
2021/09/08 02:48:08;;;;;;;6.30;5.70;;;;;;;15.32;77.12;95644.28;5035386;28;20538;-82
2021/09/08 02:50:37;;;;;;;6.13;5.63;;;;;;;15.38;77.36;95645.56;5034806;28;20457;-82
2021/09/08 02:53:04;;;;;;;10.80;6.60;;;;;;;15.35;77.19;95643.22;5034432;28;20522;-82
2021/09/08 02:55:31;;;;;;;7.40;6.70;;;;;;;15.38;77.46;95641.09;5034946;28;20475;-81
2021/09/08 02:57:58;;;;;;;12.50;6.77;;;;;;;15.45;77.19;95634.28;5034297;28;20997;-82
2021/09/08 03:00:25;;;;;;;6.40;5.80;;;;;;;15.44;76.89;95637.91;5034713;28;20443;-82
2021/09/08 03:02:52;;;;;;;8.30;7.47;;;;;;;15.38;77.28;95641.09;5034421;28;20861;-82
2021/09/08 03:05:19;;;;;;;7.50;6.80;;;;;;;15.33;77.54;95638.06;5034535;28;20430;-82
2021/09/08 03:07:47;;;;;;;7.70;7.00;;;;;;;15.29;77.31;95644.56;5034484;28;20478;-82
2021/09/08 03:10:14;;;;;;;7.17;6.50;;;;;;;15.29;77.29;95641.94;5034443;28;20543;-82
2021/09/08 03:12:41;;;;;;;7.60;6.80;;;;;;;15.05;78.40;95630.97;5034408;28;20858;-82
2021/09/08 03:15:09;;;;;;;8.10;7.40;;;;;;;15.19;78.06;95633.19;5014772;28;20478;-82
2021/09/08 03:17:36;;;;;;;8.03;7.00;;;;;;;15.23;78.13;95644.31;5033417;28;20932;-82
2021/09/08 03:20:03;;;;;;;8.13;7.33;;;;;;;15.27;77.88;95635.13;5032898;28;20462;-82
2021/09/08 03:22:30;;;;;;;9.43;7.20;;;;;;;15.28;77.75;95631.50;5033095;28;20526;-82
2021/09/08 03:24:58;;;;;;;11.90;8.77;;;;;;;15.26;77.46;95636.94;5014771;28;20461;-82
2021/09/08 03:27:25;;;;;;;7.30;6.60;;;;;;;15.22;77.34;95643.47;5033087;28;20456;-82
2021/09/08 03:29:52;;;;;;;9.73;6.53;;;;;;;15.14;77.49;95640.69;5032695;28;21050;-82
2021/09/08 03:32:19;;;;;;;9.83;7.30;;;;;;;15.17;77.55;95641.25;5032744;28;20458;-82
2021/09/08 03:34:46;;;;;;;7.03;6.27;;;;;;;15.15;77.95;95645.00;5032455;28;20865;-82
2021/09/08 03:37:13;;;;;;;8.43;7.73;;;;;;;15.18;77.92;95642.94;5033231;28;20442;-82
2021/09/08 03:39:40;;;;;;;8.30;7.50;;;;;;;15.27;77.33;95651.81;5014753;28;20463;-82
2021/09/08 03:42:09;;;;;;;7.37;6.77;;;;;;;15.33;77.31;95651.28;5032743;28;20489;-82
2021/09/08 03:44:35;;;;;;;8.03;7.33;;;;;;;15.00;78.43;95651.69;5032798;28;20443;-82
2021/09/08 03:47:03;;;;;;;8.80;7.43;;;;;;;14.92;78.68;95648.91;5030546;28;21163;-82
2021/09/08 03:49:29;;;;;;;10.00;7.23;;;;;;;14.62;80.13;95645.38;5032880;28;20443;-82
2021/09/08 03:51:56;;;;;;;7.63;6.80;;;;;;;14.39;81.56;95655.28;5032719;28;20476;-82
2021/09/08 03:54:23;;;;;;;7.33;6.23;;;;;;;14.32;82.01;95655.97;5032710;28;20493;-82
2021/09/08 03:56:50;;;;;;;8.10;7.30;;;;;;;14.44;81.87;95649.63;5032626;28;20446;-82
2021/09/08 03:59:21;;;;;;;9.57;7.47;;;;;;;14.42;81.39;95651.53;5032254;28;20458;-82
2021/09/08 04:01:48;;;;;;;8.23;6.70;;;;;;;14.39;82.13;95649.19;5032363;28;20444;-82
2021/09/08 04:04:15;;;;;;;8.83;7.63;;;;;;;14.47;81.56;95652.03;5013856;28;21026;-82
2021/09/08 04:06:42;;;;;;;8.90;8.10;;;;;;;14.57;80.64;95642.31;5032759;28;20446;-82
2021/09/08 04:09:09;;;;;;;10.23;7.50;;;;;;;14.67;80.81;95647.59;5032673;28;20446;-82
2021/09/08 04:11:36;;;;;;;10.63;6.37;;;;;;;14.67;80.29;95648.44;5013913;28;20530;-81
2021/09/08 04:14:03;;;;;;;8.30;7.60;;;;;;;14.73;80.30;95645.25;5032568;28;20837;-82
2021/09/08 04:16:32;;;;;;;7.20;6.50;;;;;;;14.66;80.08;95644.13;5013611;28;20450;-81
2021/09/08 04:18:59;;;;;;;8.50;7.30;;;;;;;14.49;81.08;95640.34;5033702;28;20816;-82
2021/09/08 04:21:26;;;;;;;7.97;6.37;;;;;;;14.65;80.34;95642.47;5033390;28;20525;-82
2021/09/08 04:23:53;;;;;;;7.50;6.80;;;;;;;14.67;80.63;95644.97;5033303;28;20585;-79
2021/09/08 04:26:20;;;;;;;6.60;6.00;;;;;;;14.54;80.34;95645.22;5033478;28;20431;-79
2021/09/08 04:35:31;;;;;;;6.67;6.10;;;;;;;14.67;80.19;95639.69;5030991;28;20476;-78
2021/09/08 04:37:58;;;;;;;6.63;6.03;;;;;;;14.70;80.17;95644.69;5032248;28;20465;-80
2021/09/08 04:40:25;;;;;;;7.77;5.40;;;;;;;14.81;79.32;95640.13;5032347;28;20867;-80
2021/09/08 04:42:52;;;;;;;6.77;5.60;;;;;;;14.90;79.37;95650.84;5031825;28;20460;-79
2021/09/08 04:45:19;;;;;;;8.03;5.87;;;;;;;14.95;78.42;95643.34;5013897;28;21011;-79
2021/09/08 04:47:46;;;;;;;6.80;5.77;;;;;;;15.09;77.51;95648.22;5035818;28;20453;-79
2021/09/08 04:50:13;;;;;;;8.70;5.60;;;;;;;15.31;77.12;95652.38;5035795;28;20872;-82
2021/09/08 04:52:41;;;;;;;9.70;6.07;;;;;;;15.40;77.06;95654.19;5035691;28;20453;-82
2021/09/08 04:55:10;;;;;;;7.73;6.23;;;;;;;15.56;76.25;95649.13;5035948;28;20831;-82
2021/09/08 04:57:36;;;;;;;6.50;5.90;;;;;;;15.78;75.83;95655.97;5001539;28;20459;-82
2021/09/08 05:00:04;;;;;;;5.90;5.30;;;;;;;15.99;75.46;95656.59;5017485;28;20924;-82
2021/09/08 05:02:31;;;;;;;9.03;5.20;;;;;;;16.36;73.66;95655.75;5035598;28;20439;-81
2021/09/08 05:04:58;;;;;;;12.90;5.70;;;;;;;16.37;72.57;95665.38;5035938;28;20449;-82
2021/09/08 05:07:25;;;;;;;7.47;6.27;;;;;;;16.53;72.38;95660.28;5035359;28;20535;-80
2021/09/08 05:09:54;;;;;;;9.30;5.77;;;;;;;16.70;71.74;95663.97;5035460;28;20460;-80
2021/09/08 05:12:20;;;;;;;5.87;5.27;;;;;;;16.81;71.52;95657.66;5035536;28;20444;-79
2021/09/08 05:14:47;;;;;;;9.53;6.30;;;;;;;16.99;70.98;95661.97;5033398;28;20569;-80
2021/09/08 05:17:14;;;;;;;12.63;5.40;;;;;;;17.12;69.92;95664.28;5024817;28;20462;-79
2021/09/08 05:19:41;;;;;;;5.10;4.60;;;;;;;17.04;69.34;95665.00;5015540;28;20450;-81
2021/09/08 05:22:08;;;;;;;5.27;4.57;;;;;;;16.98;69.96;95662.13;5015348;28;20447;-80
2021/09/08 05:24:35;;;;;;;5.57;5.03;;;;;;;16.60;71.08;95666.66;5014621;28;20538;-81
2021/09/08 05:27:04;;;;;;;6.73;6.13;;;;;;;16.57;71.71;95663.47;5016667;28;20448;-79
2021/09/08 05:29:31;;;;;;;12.30;5.50;;;;;;;16.43;72.38;95670.06;5016155;28;20439;-81
2021/09/08 05:31:58;;;;;;;13.70;4.67;;;;;;;16.01;73.59;95657.28;5016202;28;20444;-81
2021/09/08 05:34:25;;;;;;;6.90;4.77;;;;;;;15.92;74.31;95659.97;5016443;28;20449;-81
2021/09/08 05:36:52;;;;;;;5.50;4.80;;;;;;;15.94;74.44;95653.56;4982478;28;20443;-80
2021/09/08 05:39:19;;;;;;;8.87;4.77;;;;;;;15.93;74.29;95656.34;4982051;28;20451;-79
2021/09/08 05:41:46;;;;;;;10.77;4.30;;;;;;;16.03;73.70;95655.34;5016307;28;20450;-80
2021/09/08 05:44:14;;;;;;;9.87;4.70;;;;;;;16.14;73.85;95648.19;4982099;28;20528;-81
2021/09/08 05:46:41;;;;;;;5.40;4.57;;;;;;;16.34;72.23;95647.13;4998023;28;20471;-80
2021/09/08 05:49:08;;;;;;;6.37;4.33;;;;;;;16.56;70.53;95649.38;5016588;28;20805;-80
2021/09/08 05:51:35;;;;;;;5.13;4.60;;;;;;;16.85;71.40;95651.06;5016125;28;20442;-83
2021/09/08 05:54:02;;;;;;;14.30;4.33;;;;;;;17.14;70.54;95640.25;5016106;28;20441;-80
2021/09/08 05:59:52;;;;;;;7.40;4.27;;;;;;;17.59;67.14;95646.25;5014718;28;20486;-81
2021/09/08 06:02:43;;;;;;;4.80;4.13;;;;;;;17.46;68.06;95645.00;4998155;28;20455;-80
2021/09/08 06:05:11;;;;;;;7.87;4.07;;;;;;;17.60;67.66;95639.94;5018383;28;20526;-80
2021/09/08 06:07:38;;;;;;;7.17;3.80;;;;;;;17.51;67.27;95645.38;5015985;28;20448;-80
2021/09/08 06:10:06;;;;;;;9.57;4.03;;;;;;;17.79;66.85;95646.94;4997683;28;20451;-81
2021/09/08 06:12:33;;;;;;;4.50;3.90;;;;;;;17.91;66.59;95640.34;5015769;28;20456;-81
2021/09/08 06:15:01;;;;;;;11.67;3.97;;;;;;;18.15;65.40;95650.28;5015750;28;20567;-82
2021/09/08 06:17:29;;;;;;;5.87;4.07;;;;;;;18.30;64.50;95634.63;5015384;28;20463;-82
2021/09/08 06:19:56;;;;;;;4.80;3.83;;;;;;;18.54;63.98;95637.38;5015732;28;20491;-81
2021/09/08 06:22:23;;;;;;;6.47;3.83;;;;;;;18.47;63.73;95643.47;5015295;28;20963;-82
2021/09/08 06:24:50;;;;;;;8.17;5.17;;;;;;;18.78;63.44;95641.13;4997162;28;20536;-82
2021/09/08 06:27:17;;;;;;;5.57;3.93;;;;;;;19.15;62.11;95640.72;5016259;28;20513;-81
2021/09/08 06:29:44;;;;;;;4.07;3.77;;;;;;;19.46;61.11;95638.25;5015046;28;20428;-80
2021/09/08 06:32:12;;;;;;;4.00;3.60;;;;;;;19.51;60.08;95638.56;5015291;28;20534;-82
2021/09/08 06:34:41;;;;;;;5.10;3.77;;;;;;;19.59;60.49;95641.25;5015019;28;20458;-82
2021/09/08 06:37:08;;;;;;;6.17;4.30;;;;;;;19.56;59.47;95646.91;5014989;28;20994;-81
2021/09/08 06:39:35;;;;;;;4.27;3.50;;;;;;;19.00;61.42;95648.50;5015346;28;20529;-82
2021/09/08 06:42:02;;;;;;;3.77;3.30;;;;;;;18.94;61.31;95649.16;5015406;28;20945;-81
2021/09/08 06:44:29;;;;;;;9.10;4.27;;;;;;;18.70;62.31;95646.41;5015174;28;20548;-81
2021/09/08 06:50:16;;;;;;;5.20;4.20;;;;;;;19.05;60.84;95653.31;4861428;29;20450;-81
2021/09/08 06:52:43;;;;;;;5.93;3.90;;;;;;;19.38;61.50;95652.41;4953322;29;20524;-82
2021/09/08 06:55:10;;;;;;;9.03;4.13;;;;;;;19.76;60.41;95652.75;4921233;29;20482;-82
2021/09/08 06:57:37;;;;;;;4.90;3.33;;;;;;;20.18;59.82;95654.34;4952959;29;21009;-82
2021/09/08 07:00:08;;;;;;;6.50;3.07;;;;;;;20.40;58.25;95658.97;4953128;29;20981;-80
2021/09/08 07:02:35;;;;;;;3.60;3.37;;;;;;;20.15;58.18;95655.50;4952933;29;20450;-81
2021/09/08 07:05:02;;;;;;;9.90;3.37;;;;;;;20.58;57.98;95650.75;4955782;28;20450;-81
2021/09/08 07:07:33;;;;;;;4.37;3.43;;;;;;;21.06;55.96;95655.00;4972271;28;20477;-80
2021/09/08 07:10:00;;;;;;;6.80;3.40;;;;;;;21.56;55.50;95653.69;4971498;28;20430;-80
2021/09/08 07:12:26;;;;;;;3.50;3.20;;;;;;;21.68;53.21;95654.09;4973441;28;20439;-81
2021/09/08 07:14:53;;;;;;;6.37;3.40;;;;;;;21.48;53.16;95648.44;4975009;28;20447;-80
2021/09/08 07:17:20;;;;;;;5.47;3.40;;;;;;;21.70;52.04;95658.28;4941026;28;20494;-81
2021/09/08 07:19:47;;;;;;;5.30;3.20;;;;;;;22.01;52.55;95652.00;4973135;28;20990;-81
2021/09/08 07:22:14;;;;;;;4.00;3.60;;;;;;;22.19;51.31;95660.50;4972129;28;20527;-82
2021/09/08 07:24:43;;;;;;;4.70;3.47;;;;;;;22.48;52.20;95655.16;4972585;28;20450;-81
2021/09/08 07:27:10;;;;;;;7.73;3.43;;;;;;;22.76;51.20;95660.69;4953272;28;20499;-82
2021/09/08 07:29:38;;;;;;;4.83;2.87;;;;;;;23.05;50.32;95654.50;5014688;28;20518;-80
2021/09/08 07:32:07;;;;;;;6.63;3.50;;;;;;;23.04;49.10;95657.34;5013443;28;20446;-81
2021/09/08 07:34:34;;;;;;;6.57;3.17;;;;;;;22.91;48.16;95662.56;5011064;28;20459;-81
2021/09/08 07:37:01;;;;;;;5.53;3.73;;;;;;;22.16;47.73;95668.88;5013196;28;20491;-80
2021/09/08 07:39:29;;;;;;;2.90;2.70;;;;;;;21.86;46.47;95659.97;5010967;28;20806;-81
2021/09/08 07:41:59;;;;;;;4.40;3.30;;;;;;;21.27;49.32;95662.41;5013614;28;20489;-81
2021/09/08 07:44:25;;;;;;;3.73;2.80;;;;;;;20.69;49.55;95661.88;4993756;28;20488;-82
2021/09/08 07:46:52;;;;;;;3.50;2.87;;;;;;;20.61;50.29;95671.75;5013472;28;20568;-81
2021/09/08 07:49:19;;;;;;;4.47;2.60;;;;;;;20.14;49.65;95666.34;5012280;28;20546;-81
2021/09/08 07:51:46;;;;;;;4.40;3.10;;;;;;;20.11;50.80;95670.19;5013466;28;20447;-81
2021/09/08 07:54:13;;;;;;;5.43;2.80;;;;;;;20.06;51.55;95665.34;5013185;28;20448;-81
2021/09/08 07:56:40;;;;;;;18.37;7.40;;;;;;;20.14;52.04;95672.50;5013910;28;20571;-81
2021/09/08 07:59:09;;;;;;;5.80;3.70;;;;;;;20.16;50.86;95673.16;5013597;28;20510;-82
2021/09/08 08:01:36;;;;;;;3.93;3.63;;;;;;;19.96;51.36;95666.56;5012599;28;20944;-82
2021/09/08 08:04:03;;;;;;;3.37;2.93;;;;;;;20.36;51.76;95669.13;5012624;28;21005;-82
2021/09/08 08:06:29;;;;;;;3.33;3.07;;;;;;;20.38;51.53;95664.44;5026380;28;20526;-82
2021/09/08 08:08:56;;;;;;;7.17;3.37;;;;;;;20.50;50.66;95667.59;5012498;28;20448;-82
2021/09/08 08:11:23;;;;;;;2.93;2.70;;;;;;;20.56;51.02;95668.75;5013372;28;20461;-82
2021/09/08 08:13:50;;;;;;;3.87;3.07;;;;;;;20.77;48.91;95663.66;5012087;28;21019;-82
2021/09/08 08:16:19;;;;;;;6.13;3.57;;;;;;;20.99;49.84;95654.03;5012016;28;20499;-82
2021/09/08 08:18:45;;;;;;;3.87;2.83;;;;;;;20.98;48.83;95655.88;5012755;28;20451;-82
2021/09/08 08:21:12;;;;;;;3.73;2.43;;;;;;;20.97;49.34;95662.22;5012742;28;20450;-82
2021/09/08 08:23:39;;;;;;;3.77;3.47;;;;;;;20.94;49.61;95654.56;4995280;28;20442;-82
2021/09/08 08:26:06;;;;;;;4.33;3.97;;;;;;;20.53;50.06;95656.63;5013577;28;20435;-82
2021/09/08 08:28:34;;;;;;;4.93;3.40;;;;;;;20.76;50.29;95659.31;5012092;28;20440;-82
2021/09/08 08:31:01;;;;;;;11.70;3.30;;;;;;;20.79;50.61;95658.16;5010427;28;20461;-81
2021/09/08 08:33:30;;;;;;;3.03;2.70;;;;;;;19.93;49.98;95657.03;5013891;28;20447;-81
2021/09/08 08:35:57;;;;;;;3.20;2.70;;;;;;;20.21;51.18;95656.66;5013158;28;20559;-81
2021/09/08 08:38:24;;;;;;;6.33;3.50;;;;;;;20.59;51.55;95663.09;4995490;28;20453;-82
2021/09/08 08:40:51;;;;;;;4.40;2.77;;;;;;;20.77;50.67;95657.50;5013470;28;20442;-81
2021/09/08 08:43:19;;;;;;;5.80;2.90;;;;;;;20.85;50.87;95650.28;5012987;28;20591;-82
2021/09/08 08:45:47;;;;;;;6.57;2.90;;;;;;;21.01;49.88;95650.19;5013457;28;20532;-82
2021/09/08 08:48:14;;;;;;;5.07;2.77;;;;;;;21.15;50.08;95645.13;5013639;28;20428;-82
2021/09/08 08:50:43;;;;;;;2.80;2.50;;;;;;;21.11;48.07;95649.16;5013275;28;20445;-81
2021/09/08 08:53:10;;;;;;;5.13;2.70;;;;;;;20.90;47.45;95645.25;5012392;28;20464;-82
2021/09/08 08:55:37;;;;;;;3.20;2.33;;;;;;;20.49;48.35;95641.09;5011910;28;21026;-82
2021/09/08 08:58:04;;;;;;;3.40;2.87;;;;;;;20.48;50.47;95642.09;5012065;28;20454;-82
2021/09/08 09:00:31;;;;;;;9.60;2.70;;;;;;;20.82;49.14;95636.47;5011930;28;20458;-82
2021/09/08 09:02:58;;;;;;;5.37;2.90;;;;;;;20.63;48.66;95633.22;5012437;28;20891;-82
2021/09/08 09:05:34;;;;;;;4.80;3.07;;;;;;;20.95;50.32;95634.88;5011900;28;20440;-82
2021/09/08 09:08:04;;;;;;;3.10;2.80;;;;;;;21.13;49.20;95625.78;5011905;28;20443;-82
2021/09/08 09:10:31;;;;;;;3.60;3.00;;;;;;;21.14;49.38;95628.28;5012203;28;20551;-82
2021/09/08 09:12:58;;;;;;;2.40;2.27;;;;;;;21.09;49.51;95632.47;5011930;28;20527;-82
2021/09/08 09:15:26;;;;;;;2.80;2.60;;;;;;;20.83;49.99;95630.13;5012826;28;20432;-84
2021/09/08 09:17:54;;;;;;;6.17;2.90;;;;;;;20.85;49.15;95614.78;5013228;28;20993;-81
2021/09/08 09:20:24;;;;;;;5.63;3.13;;;;;;;20.87;51.07;95615.44;5012795;28;20441;-82
2021/09/08 09:22:59;;;;;;;3.40;2.70;;;;;;;20.77;50.72;95618.31;5012814;28;20433;-82
2021/09/08 09:25:32;;;;;;;3.67;3.13;;;;;;;20.51;49.06;95615.94;5013112;28;20979;-82
2021/09/08 09:28:02;;;;;;;3.73;2.73;;;;;;;20.91;49.82;95609.56;5027482;28;20448;-82
2021/09/08 09:30:32;;;;;;;4.57;3.10;;;;;;;20.94;48.81;95613.72;5033419;28;20427;-82
2021/09/08 09:33:00;;;;;;;4.63;2.60;;;;;;;20.79;45.87;95607.47;5034210;28;20534;-81
2021/09/08 09:35:29;;;;;;;5.87;2.57;;;;;;;20.69;45.72;95607.69;5035923;28;20533;-83
2021/09/08 09:37:57;;;;;;;3.07;2.60;;;;;;;20.92;43.28;95605.06;5035886;28;20451;-83
2021/09/08 09:40:28;;;;;;;2.80;2.30;;;;;;;20.79;46.17;95605.63;5036052;28;20521;-81
2021/09/08 09:42:55;;;;;;;2.63;2.43;;;;;;;20.62;44.15;95598.72;5035937;28;20447;-81
2021/09/08 09:45:23;;;;;;;2.57;2.37;;;;;;;20.81;47.32;95605.44;5036115;28;20528;-81
2021/09/08 09:47:50;;;;;;;5.60;2.40;;;;;;;21.07;46.99;95586.44;5036453;28;20513;-81
2021/09/08 09:50:19;;;;;;;2.63;2.43;;;;;;;21.21;48.31;95591.03;5035811;28;20450;-81
2021/09/08 09:52:47;;;;;;;6.73;2.47;;;;;;;21.30;45.41;95597.97;5036001;28;20448;-80
2021/09/08 09:55:14;;;;;;;4.30;2.40;;;;;;;21.33;46.06;95598.44;5035607;28;20447;-81
2021/09/08 09:57:43;;;;;;;2.60;2.40;;;;;;;21.34;47.52;95593.94;5035793;28;20585;-81
2021/09/08 10:00:12;;;;;;;4.50;2.80;;;;;;;21.44;46.77;95599.88;5035540;28;20484;-81
2021/09/08 10:02:40;;;;;;;3.00;2.57;;;;;;;21.28;45.66;95602.69;5035967;28;20479;-82
2021/09/08 10:05:08;;;;;;;3.50;2.60;;;;;;;21.51;44.54;95600.81;5035778;28;20447;-81
2021/09/08 10:07:37;;;;;;;5.03;3.57;;;;;;;21.60;45.02;95599.72;5035562;28;20477;-82
2021/09/08 10:10:12;;;;;;;4.07;2.93;;;;;;;21.27;44.33;95601.00;5033703;28;20483;-82
2021/09/08 10:12:45;;;;;;;3.20;3.00;;;;;;;21.27;44.09;95593.00;5035410;28;20444;-81
2021/09/08 10:15:15;;;;;;;5.73;2.93;;;;;;;21.42;43.19;95601.91;5035285;28;20811;-82
2021/09/08 10:17:45;;;;;;;4.57;2.70;;;;;;;21.34;44.29;95589.44;5035553;28;20503;-81
2021/09/08 10:20:17;;;;;;;7.40;3.00;;;;;;;21.25;46.38;95589.69;5034406;28;20443;-82
2021/09/08 10:22:45;;;;;;;3.10;2.80;;;;;;;20.93;44.93;95596.88;5015537;28;20452;-80
2021/09/08 10:25:14;;;;;;;2.70;2.50;;;;;;;20.69;45.78;95591.69;5034358;28;20439;-82
2021/09/08 10:27:43;;;;;;;7.63;2.60;;;;;;;20.75;45.28;95590.97;5034149;28;20485;-81
2021/09/08 10:30:12;;;;;;;3.60;2.60;;;;;;;20.79;47.78;95588.78;5034061;28;20534;-85
2021/09/08 10:32:40;;;;;;;2.97;2.73;;;;;;;20.65;46.81;95593.88;5034579;28;20921;-84
2021/09/08 10:35:13;;;;;;;4.27;3.07;;;;;;;20.60;47.99;95590.06;5033837;28;20459;-84
2021/09/08 10:37:44;;;;;;;4.93;3.33;;;;;;;20.86;48.45;95585.25;5033935;28;20489;-84
2021/09/08 10:40:12;;;;;;;3.13;2.73;;;;;;;20.61;46.56;95587.22;5034669;28;20530;-84
2021/09/08 10:42:50;;;;;;;2.80;2.60;;;;;;;20.52;46.92;95582.09;5034836;28;20581;-84
2021/09/08 10:45:18;;;;;;;4.20;2.43;;;;;;;20.84;48.65;95581.94;4999738;28;20470;-85
2021/09/08 10:47:45;;;;;;;4.33;2.60;;;;;;;21.04;48.54;95583.13;5034740;28;20525;-84
2021/09/08 10:50:13;;;;;;;3.00;2.70;;;;;;;20.96;47.50;95583.19;5034859;28;20435;-85
2021/09/08 10:52:49;;;;;;;3.63;2.47;;;;;;;21.10;47.77;95578.91;5034507;28;20446;-84
2021/09/08 10:55:26;;;;;;;3.20;2.90;;;;;;;21.12;47.64;95578.75;5035501;28;20515;-84
2021/09/08 10:58:02;;;;;;;4.27;2.70;;;;;;;20.87;48.20;95580.75;5034806;28;20796;-84
2021/09/08 11:00:37;;;;;;;3.73;2.30;;;;;;;20.86;47.23;95581.75;5034765;28;20519;-82
2021/09/08 11:03:08;;;;;;;3.30;3.00;;;;;;;20.98;48.69;95572.34;5034702;28;20450;-85
2021/09/08 11:05:49;;;;;;;5.33;3.23;;;;;;;20.78;47.65;95587.97;5034530;28;20538;-85
2021/09/08 11:08:24;;;;;;;6.07;2.50;;;;;;;20.90;50.85;95580.41;5034213;28;20446;-84
2021/09/08 11:10:52;;;;;;;4.20;3.00;;;;;;;21.20;50.03;95578.69;5034489;28;20968;-85
2021/09/08 11:13:27;;;;;;;3.53;3.00;;;;;;;21.07;48.90;95575.75;5034353;28;20440;-85
2021/09/08 11:15:54;;;;;;;4.67;2.80;;;;;;;20.78;48.43;95577.28;5034458;28;20557;-84
2021/09/08 11:18:21;;;;;;;5.60;3.00;;;;;;;20.73;49.12;95579.66;5034242;28;20431;-84
2021/09/08 11:20:48;;;;;;;4.10;2.30;;;;;;;20.79;47.52;95570.94;5034226;28;20440;-83
2021/09/08 11:23:16;;;;;;;6.50;3.00;;;;;;;20.91;50.12;95580.22;4999561;28;20919;-86
2021/09/08 11:25:44;;;;;;;2.47;2.27;;;;;;;20.83;47.10;95574.94;5033768;28;20456;-84
2021/09/08 11:28:12;;;;;;;3.67;3.37;;;;;;;20.98;49.74;95567.00;5032120;28;21014;-85
2021/09/08 11:30:42;;;;;;;3.10;2.60;;;;;;;20.93;48.65;95564.88;5019046;28;20537;-85
2021/09/08 11:33:10;;;;;;;6.43;2.50;;;;;;;21.15;48.95;95562.38;5032247;28;20459;-85
2021/09/08 11:35:43;;;;;;;4.30;3.10;;;;;;;21.07;48.13;95565.09;5032115;28;20444;-84
2021/09/08 11:38:13;;;;;;;5.47;2.80;;;;;;;21.25;48.25;95552.31;5031126;28;20488;-85
2021/09/08 11:40:45;;;;;;;4.77;2.70;;;;;;;21.26;47.58;95557.47;5032934;28;20457;-85
2021/09/08 11:43:12;;;;;;;8.20;2.60;;;;;;;21.32;47.09;95558.59;5032718;28;20831;-85
2021/09/08 11:45:41;;;;;;;3.10;2.90;;;;;;;21.21;48.01;95543.81;5032434;28;20561;-85
2021/09/08 11:48:08;;;;;;;3.77;3.00;;;;;;;21.20;49.11;95554.66;5032862;28;20547;-85
2021/09/08 11:50:35;;;;;;;2.63;2.43;;;;;;;21.08;48.36;95550.72;5032547;28;20796;-85
2021/09/08 11:53:03;;;;;;;3.37;3.07;;;;;;;21.36;49.16;95543.03;5032238;28;20452;-84
2021/09/08 11:55:33;;;;;;;2.80;2.60;;;;;;;21.47;47.59;95540.78;5031908;28;20804;-85